sensor_id;sensor_type;location;lat;lon;timestamp;pressure;altitude;pressure_sealevel;temperature;humidity
65227;BME280;51805;49.012;12.104;2022-12-13T00:00:35;97323.84;;;22.27;47.42
65227;BME280;51805;49.012;12.104;2022-12-13T00:03:00;97318.31;;;22.19;47.78
65227;BME280;51805;49.012;12.104;2022-12-13T00:05:25;97305.72;;;22.09;47.77
65227;BME280;51805;49.012;12.104;2022-12-13T00:07:51;97321.53;;;22.21;47.64
65227;BME280;51805;49.012;12.104;2022-12-13T00:10:16;97320.19;;;22.18;47.79
65227;BME280;51805;49.012;12.104;2022-12-13T00:12:41;97320.19;;;22.18;47.68
65227;BME280;51805;49.012;12.104;2022-12-13T00:15:07;97330.66;;;22.25;47.55
65227;BME280;51805;49.012;12.104;2022-12-13T00:17:32;97316.91;;;22.21;47.67
65227;BME280;51805;49.012;12.104;2022-12-13T00:19:58;97311.56;;;22.16;47.62
65227;BME280;51805;49.012;12.104;2022-12-13T00:22:23;97320.19;;;22.18;47.48
65227;BME280;51805;49.012;12.104;2022-12-13T00:24:48;97326.13;;;22.20;47.65
65227;BME280;51805;49.012;12.104;2022-12-13T00:27:13;97321.91;;;22.14;47.60
65227;BME280;51805;49.012;12.104;2022-12-13T00:29:39;97311.72;;;22.06;47.64
65227;BME280;51805;49.012;12.104;2022-12-13T00:32:04;97328.97;;;22.10;47.70
65227;BME280;51805;49.012;12.104;2022-12-13T00:34:29;97319.78;;;22.11;47.62
65227;BME280;51805;49.012;12.104;2022-12-13T00:36:55;97327.59;;;22.13;47.74
65227;BME280;51805;49.012;12.104;2022-12-13T00:39:20;97313.41;;;22.02;47.62
65227;BME280;51805;49.012;12.104;2022-12-13T00:41:46;97302.06;;;22.00;47.65
65227;BME280;51805;49.012;12.104;2022-12-13T00:44:12;97315.72;;;22.09;47.70
65227;BME280;51805;49.012;12.104;2022-12-13T00:46:38;97317.94;;;22.07;47.58
65227;BME280;51805;49.012;12.104;2022-12-13T00:49:04;97316.31;;;22.06;47.56
65227;BME280;51805;49.012;12.104;2022-12-13T00:51:30;97302.94;;;21.96;47.61
65227;BME280;51805;49.012;12.104;2022-12-13T00:53:57;97318.88;;;21.97;47.96
65227;BME280;51805;49.012;12.104;2022-12-13T00:56:24;97316.69;;;21.99;47.86
65227;BME280;51805;49.012;12.104;2022-12-13T00:58:50;97306.44;;;21.96;47.82
65227;BME280;51805;49.012;12.104;2022-12-13T01:01:17;97318.22;;;22.05;47.60
65227;BME280;51805;49.012;12.104;2022-12-13T01:03:43;97313.41;;;22.02;47.66
65227;BME280;51805;49.012;12.104;2022-12-13T01:06:13;97276.38;;;21.79;47.64
65227;BME280;51805;49.012;12.104;2022-12-13T01:08:39;97308.84;;;21.98;47.72
65227;BME280;51805;49.012;12.104;2022-12-13T01:11:05;97315.88;;;21.99;47.68
65227;BME280;51805;49.012;12.104;2022-12-13T01:13:31;97299.03;;;21.83;47.95
65227;BME280;51805;49.012;12.104;2022-12-13T01:15:57;97299.78;;;21.89;47.83
65227;BME280;51805;49.012;12.104;2022-12-13T01:18:22;97302.28;;;21.85;47.94
65227;BME280;51805;49.012;12.104;2022-12-13T01:21:02;97290.47;;;21.76;47.98
65227;BME280;51805;49.012;12.104;2022-12-13T01:23:28;97304.50;;;21.78;48.10
65227;BME280;51805;49.012;12.104;2022-12-13T01:25:54;97291.59;;;21.70;48.06
65227;BME280;51805;49.012;12.104;2022-12-13T01:28:19;97307.44;;;21.82;48.00
65227;BME280;51805;49.012;12.104;2022-12-13T01:30:55;97309.34;;;21.81;48.14
65227;BME280;51805;49.012;12.104;2022-12-13T01:33:22;97302.91;;;21.77;48.06
65227;BME280;51805;49.012;12.104;2022-12-13T01:35:47;97289.41;;;21.72;48.08
65227;BME280;51805;49.012;12.104;2022-12-13T01:38:13;97297.53;;;21.72;48.15
65227;BME280;51805;49.012;12.104;2022-12-13T01:40:49;97294.09;;;21.67;47.94
65227;BME280;51805;49.012;12.104;2022-12-13T01:43:15;97276.81;;;21.63;48.13
65227;BME280;51805;49.012;12.104;2022-12-13T01:45:42;97288.09;;;21.70;47.94
65227;BME280;51805;49.012;12.104;2022-12-13T01:48:13;97291.31;;;21.72;47.94
65227;BME280;51805;49.012;12.104;2022-12-13T01:50:47;97283.28;;;21.67;48.13
65227;BME280;51805;49.012;12.104;2022-12-13T01:53:17;97274.69;;;21.60;48.17
65227;BME280;51805;49.012;12.104;2022-12-13T01:55:47;97282.31;;;21.58;47.97
65227;BME280;51805;49.012;12.104;2022-12-13T01:58:14;97267.44;;;21.55;48.14
65227;BME280;51805;49.012;12.104;2022-12-13T02:00:40;97277.16;;;21.56;48.26
65227;BME280;51805;49.012;12.104;2022-12-13T02:03:05;97265.91;;;21.49;48.09
65227;BME280;51805;49.012;12.104;2022-12-13T02:05:38;97288.50;;;21.58;48.30
65227;BME280;51805;49.012;12.104;2022-12-13T02:08:07;97276.66;;;21.54;48.38
65227;BME280;51805;49.012;12.104;2022-12-13T02:10:34;97261.09;;;21.46;48.31
65227;BME280;51805;49.012;12.104;2022-12-13T02:13:00;97269.44;;;21.50;48.37
65227;BME280;51805;49.012;12.104;2022-12-13T02:15:33;97258.97;;;21.43;48.24
65227;BME280;51805;49.012;12.104;2022-12-13T02:21:00;97275.63;;;21.50;48.46
65227;BME280;51805;49.012;12.104;2022-12-13T02:31:49;97253.59;;;21.38;48.29
65227;BME280;51805;49.012;12.104;2022-12-13T02:34:22;97270.78;;;21.47;48.24
65227;BME280;51805;49.012;12.104;2022-12-13T02:37:06;97265.47;;;21.42;48.50
65227;BME280;51805;49.012;12.104;2022-12-13T02:39:40;97251.81;;;21.28;48.26
65227;BME280;51805;49.012;12.104;2022-12-13T02:42:17;97264.94;;;21.40;48.38
65227;BME280;51805;49.012;12.104;2022-12-13T02:44:53;97261.19;;;21.36;48.52
65227;BME280;51805;49.012;12.104;2022-12-13T02:47:24;97260.41;;;21.35;48.21
65227;BME280;51805;49.012;12.104;2022-12-13T02:49:54;97272.53;;;21.38;48.31
65227;BME280;51805;49.012;12.104;2022-12-13T02:52:24;97265.22;;;21.38;48.09
65227;BME280;51805;49.012;12.104;2022-12-13T02:54:53;97263.34;;;21.39;48.40
65227;BME280;51805;49.012;12.104;2022-12-13T02:57:37;97259.06;;;21.33;48.35
65227;BME280;51805;49.012;12.104;2022-12-13T03:00:15;97267.69;;;21.35;48.18
65227;BME280;51805;49.012;12.104;2022-12-13T03:02:58;97264.19;;;21.34;48.57
65227;BME280;51805;49.012;12.104;2022-12-13T03:05:43;97262.28;;;21.35;48.20
65227;BME280;51805;49.012;12.104;2022-12-13T03:08:23;97254.75;;;21.32;48.40
65227;BME280;51805;49.012;12.104;2022-12-13T03:11:05;97247.75;;;21.31;48.29
65227;BME280;51805;49.012;12.104;2022-12-13T03:13:56;97251.25;;;21.31;48.08
65227;BME280;51805;49.012;12.104;2022-12-13T03:16:32;97253.22;;;21.26;48.28
65227;BME280;51805;49.012;12.104;2022-12-13T03:19:02;97247.81;;;21.26;48.29
65227;BME280;51805;49.012;12.104;2022-12-13T03:21:29;97243.56;;;21.20;48.40
65227;BME280;51805;49.012;12.104;2022-12-13T03:23:54;97256.19;;;21.24;48.50
65227;BME280;51805;49.012;12.104;2022-12-13T03:26:23;97233.09;;;21.13;48.37
65227;BME280;51805;49.012;12.104;2022-12-13T03:28:49;97224.16;;;21.13;48.32
65227;BME280;51805;49.012;12.104;2022-12-13T03:31:16;97231.94;;;21.19;48.35
65227;BME280;51805;49.012;12.104;2022-12-13T03:33:41;97231.66;;;21.21;48.43
65227;BME280;51805;49.012;12.104;2022-12-13T03:36:07;97220.69;;;21.12;48.30
65227;BME280;51805;49.012;12.104;2022-12-13T03:38:33;97241.38;;;21.22;48.29
65227;BME280;51805;49.012;12.104;2022-12-13T03:41:03;97237.88;;;21.21;48.27
65227;BME280;51805;49.012;12.104;2022-12-13T03:43:30;97220.69;;;21.12;48.35
65227;BME280;51805;49.012;12.104;2022-12-13T03:45:55;97183.91;;;20.88;48.34
65227;BME280;51805;49.012;12.104;2022-12-13T03:48:21;97224.41;;;21.16;48.40
65227;BME280;51805;49.012;12.104;2022-12-13T03:50:46;97217.22;;;21.07;48.44
65227;BME280;51805;49.012;12.104;2022-12-13T03:53:12;97228.75;;;21.17;48.41
65227;BME280;51805;49.012;12.104;2022-12-13T03:55:37;97214.47;;;21.12;48.24
65227;BME280;51805;49.012;12.104;2022-12-13T03:58:02;97199.69;;;21.04;48.30
65227;BME280;51805;49.012;12.104;2022-12-13T04:00:28;97217.44;;;21.10;48.32
65227;BME280;51805;49.012;12.104;2022-12-13T04:02:53;97216.88;;;21.13;48.30
65227;BME280;51805;49.012;12.104;2022-12-13T04:05:18;97216.06;;;21.13;48.47
65227;BME280;51805;49.012;12.104;2022-12-13T04:07:44;97196.75;;;21.01;48.48
65227;BME280;51805;49.012;12.104;2022-12-13T04:10:09;97210.75;;;21.08;48.29
65227;BME280;51805;49.012;12.104;2022-12-13T04:12:34;97208.31;;;21.06;48.51
65227;BME280;51805;49.012;12.104;2022-12-13T04:14:59;97208.38;;;21.01;48.42
65227;BME280;51805;49.012;12.104;2022-12-13T04:17:25;97214.00;;;21.05;48.61
65227;BME280;51805;49.012;12.104;2022-12-13T04:19:50;97207.56;;;21.01;48.38
65227;BME280;51805;49.012;12.104;2022-12-13T04:22:15;97206.19;;;21.03;48.40
65227;BME280;51805;49.012;12.104;2022-12-13T04:24:40;97208.63;;;21.05;48.49
65227;BME280;51805;49.012;12.104;2022-12-13T04:27:06;97204.84;;;21.01;48.33
65227;BME280;51805;49.012;12.104;2022-12-13T04:29:31;97191.66;;;20.94;48.39
65227;BME280;51805;49.012;12.104;2022-12-13T04:31:56;97196.28;;;20.94;48.36
65227;BME280;51805;49.012;12.104;2022-12-13T04:34:22;97201.13;;;20.97;48.76
65227;BME280;51805;49.012;12.104;2022-12-13T04:36:47;97196.84;;;20.96;48.33
65227;BME280;51805;49.012;12.104;2022-12-13T04:39:12;97210.53;;;20.99;48.54
65227;BME280;51805;49.012;12.104;2022-12-13T04:41:38;97204.66;;;20.97;48.66
65227;BME280;51805;49.012;12.104;2022-12-13T04:44:06;97216.53;;;20.96;48.58
65227;BME280;51805;49.012;12.104;2022-12-13T04:46:32;97200.91;;;20.88;48.33
65227;BME280;51805;49.012;12.104;2022-12-13T04:48:57;97204.97;;;20.91;48.41
65227;BME280;51805;49.012;12.104;2022-12-13T04:51:23;97200.06;;;20.93;48.18
65227;BME280;51805;49.012;12.104;2022-12-13T04:53:48;97201.69;;;20.94;48.50
65227;BME280;51805;49.012;12.104;2022-12-13T04:56:14;97182.59;;;20.85;48.43
65227;BME280;51805;49.012;12.104;2022-12-13T04:58:39;97203.84;;;20.92;48.19
65227;BME280;51805;49.012;12.104;2022-12-13T05:01:06;97186.91;;;20.86;48.42
65227;BME280;51805;49.012;12.104;2022-12-13T05:03:31;97206.03;;;20.90;48.50
65227;BME280;51805;49.012;12.104;2022-12-13T05:05:56;97193.63;;;20.89;48.41
65227;BME280;51805;49.012;12.104;2022-12-13T05:08:22;97182.59;;;20.85;48.41
65227;BME280;51805;49.012;12.104;2022-12-13T05:10:52;97178.34;;;20.79;48.40
65227;BME280;51805;49.012;12.104;2022-12-13T05:13:19;97182.13;;;20.78;48.46
65227;BME280;51805;49.012;12.104;2022-12-13T05:15:44;97181.84;;;20.80;48.56
65227;BME280;51805;49.012;12.104;2022-12-13T05:18:10;97177.84;;;20.77;48.44
65227;BME280;51805;49.012;12.104;2022-12-13T05:20:36;97193.09;;;20.87;48.42
65227;BME280;51805;49.012;12.104;2022-12-13T05:23:01;97184.53;;;20.80;48.36
65227;BME280;51805;49.012;12.104;2022-12-13T05:25:26;97190.97;;;20.84;48.35
65227;BME280;51805;49.012;12.104;2022-12-13T05:27:52;97186.09;;;20.86;48.38
65227;BME280;51805;49.012;12.104;2022-12-13T05:30:18;97196.31;;;20.89;48.37
65227;BME280;51805;49.012;12.104;2022-12-13T05:32:43;97198.22;;;20.88;48.32
65227;BME280;51805;49.012;12.104;2022-12-13T05:35:09;97195.22;;;20.90;48.32
65227;BME280;51805;49.012;12.104;2022-12-13T05:37:34;97183.63;;;20.89;48.51
65227;BME280;51805;49.012;12.104;2022-12-13T05:39:59;97184.94;;;20.92;48.14
65227;BME280;51805;49.012;12.104;2022-12-13T05:42:25;97189.25;;;20.93;48.03
65227;BME280;51805;49.012;12.104;2022-12-13T05:44:51;97204.94;;;20.96;47.95
65227;BME280;51805;49.012;12.104;2022-12-13T05:47:16;97172.16;;;20.79;48.12
65227;BME280;51805;49.012;12.104;2022-12-13T05:49:41;97192.75;;;20.98;48.30
65227;BME280;51805;49.012;12.104;2022-12-13T05:52:17;97187.34;;;20.98;47.71
65227;BME280;51805;49.012;12.104;2022-12-13T05:54:43;97195.69;;;21.02;47.98
65227;BME280;51805;49.012;12.104;2022-12-13T05:57:09;97192.97;;;21.02;48.01
65227;BME280;51805;49.012;12.104;2022-12-13T05:59:34;97183.03;;;20.97;47.83
65227;BME280;51805;49.012;12.104;2022-12-13T06:01:59;97188.16;;;20.99;47.83
65227;BME280;51805;49.012;12.104;2022-12-13T06:04:25;97197.81;;;21.05;47.80
65227;BME280;51805;49.012;12.104;2022-12-13T06:06:50;97175.72;;;20.98;47.70
65227;BME280;51805;49.012;12.104;2022-12-13T06:09:16;97190.72;;;21.09;47.68
65227;BME280;51805;49.012;12.104;2022-12-13T06:11:41;97159.50;;;20.98;47.63
65227;BME280;51805;49.012;12.104;2022-12-13T06:14:06;97192.28;;;21.15;47.75
65227;BME280;51805;49.012;12.104;2022-12-13T06:16:31;97164.81;;;21.08;47.50
65227;BME280;51805;49.012;12.104;2022-12-13T06:18:57;97187.97;;;21.14;47.71
65227;BME280;51805;49.012;12.104;2022-12-13T06:21:22;97184.69;;;21.17;47.57
65227;BME280;51805;49.012;12.104;2022-12-13T06:23:47;97170.72;;;21.10;47.37
65227;BME280;51805;49.012;12.104;2022-12-13T06:26:13;97175.47;;;21.18;47.30
65227;BME280;51805;49.012;12.104;2022-12-13T06:28:38;97178.72;;;21.20;47.52
65227;BME280;51805;49.012;12.104;2022-12-13T06:31:03;97182.72;;;21.22;47.34
65227;BME280;51805;49.012;12.104;2022-12-13T06:33:29;97166.66;;;21.12;47.42
65227;BME280;51805;49.012;12.104;2022-12-13T06:35:56;97186.66;;;21.30;47.23
65227;BME280;51805;49.012;12.104;2022-12-13T06:38:22;97181.34;;;21.25;47.49
65227;BME280;51805;49.012;12.104;2022-12-13T06:40:47;97180.53;;;21.24;47.18
65227;BME280;51805;49.012;12.104;2022-12-13T06:43:13;97170.06;;;21.18;47.23
65227;BME280;51805;49.012;12.104;2022-12-13T06:45:38;97182.91;;;21.31;47.32
65227;BME280;51805;49.012;12.104;2022-12-13T06:48:09;97192.59;;;21.32;47.26
65227;BME280;51805;49.012;12.104;2022-12-13T06:50:35;97193.63;;;21.36;47.21
65227;BME280;51805;49.012;12.104;2022-12-13T06:53:03;97184.78;;;21.30;47.12
65227;BME280;51805;49.012;12.104;2022-12-13T06:55:28;97193.06;;;21.39;47.15
65227;BME280;51805;49.012;12.104;2022-12-13T06:58:00;97187.19;;;21.32;47.18
65227;BME280;51805;49.012;12.104;2022-12-13T07:00:25;97145.31;;;21.11;47.11
65227;BME280;51805;49.012;12.104;2022-12-13T07:02:54;97180.41;;;21.34;47.01
65227;BME280;51805;49.012;12.104;2022-12-13T07:05:20;97190.28;;;21.44;46.94
65227;BME280;51805;49.012;12.104;2022-12-13T07:07:45;97197.06;;;21.41;46.89
65227;BME280;51805;49.012;12.104;2022-12-13T07:10:10;97191.38;;;21.43;47.02
65227;BME280;51805;49.012;12.104;2022-12-13T07:12:35;97175.81;;;21.35;46.98
65227;BME280;51805;49.012;12.104;2022-12-13T07:15:01;97194.53;;;21.50;46.78
65227;BME280;51805;49.012;12.104;2022-12-13T07:17:26;97183.03;;;21.39;47.00
65227;BME280;51805;49.012;12.104;2022-12-13T07:19:51;97195.41;;;21.45;46.84
65227;BME280;51805;49.012;12.104;2022-12-13T07:22:17;97190.28;;;21.44;47.07
65227;BME280;51805;49.012;12.104;2022-12-13T07:24:42;97194.91;;;21.43;46.88
65227;BME280;51805;49.012;12.104;2022-12-13T07:27:07;97188.63;;;21.48;46.72
65227;BME280;51805;49.012;12.104;2022-12-13T07:29:32;97189.88;;;21.56;46.73
65227;BME280;51805;49.012;12.104;2022-12-13T07:31:58;97199.81;;;21.60;46.62
65227;BME280;51805;49.012;12.104;2022-12-13T07:34:23;97187.16;;;21.56;46.53
65227;BME280;51805;49.012;12.104;2022-12-13T07:36:49;97198.22;;;21.59;46.66
65227;BME280;51805;49.012;12.104;2022-12-13T07:39:15;97198.88;;;21.70;46.60
65227;BME280;51805;49.012;12.104;2022-12-13T07:41:40;97180.94;;;21.55;46.54
65227;BME280;51805;49.012;12.104;2022-12-13T07:44:05;97185.75;;;21.58;46.59
65227;BME280;51805;49.012;12.104;2022-12-13T07:46:31;97199.75;;;21.65;46.60
65227;BME280;51805;49.012;12.104;2022-12-13T07:48:56;97188.47;;;21.58;46.76
65227;BME280;51805;49.012;12.104;2022-12-13T07:51:21;97213.94;;;21.76;46.76
65227;BME280;51805;49.012;12.104;2022-12-13T07:53:46;97206.09;;;21.74;46.42
65227;BME280;51805;49.012;12.104;2022-12-13T07:56:12;97212.03;;;21.76;46.41
65227;BME280;51805;49.012;12.104;2022-12-13T07:58:38;97202.31;;;21.75;46.17
65227;BME280;51805;49.012;12.104;2022-12-13T08:01:05;97211.19;;;21.81;46.23
65227;BME280;51805;49.012;12.104;2022-12-13T08:03:31;97212.25;;;21.80;46.45
65227;BME280;51805;49.012;12.104;2022-12-13T08:06:05;97217.84;;;21.88;46.27
65227;BME280;51805;49.012;12.104;2022-12-13T08:08:31;97212.63;;;21.92;46.30
65227;BME280;51805;49.012;12.104;2022-12-13T08:11:07;97213.44;;;21.92;46.13
65227;BME280;51805;49.012;12.104;2022-12-13T08:13:34;97218.25;;;21.95;46.31
65227;BME280;51805;49.012;12.104;2022-12-13T08:16:01;97211.25;;;21.94;46.15
65227;BME280;51805;49.012;12.104;2022-12-13T08:18:27;97195.38;;;21.88;46.08
65227;BME280;51805;49.012;12.104;2022-12-13T08:21:00;97201.38;;;22.03;46.09
65227;BME280;51805;49.012;12.104;2022-12-13T08:23:26;97201.13;;;22.00;45.89
65227;BME280;51805;49.012;12.104;2022-12-13T08:25:53;97197.06;;;22.02;46.00
65227;BME280;51805;49.012;12.104;2022-12-13T08:28:19;97209.72;;;22.07;45.88
65227;BME280;51805;49.012;12.104;2022-12-13T08:30:44;97207.28;;;22.05;45.87
65227;BME280;51805;49.012;12.104;2022-12-13T08:33:09;97203.72;;;22.10;45.79
65227;BME280;51805;49.012;12.104;2022-12-13T08:35:35;97213.72;;;22.09;45.93
65227;BME280;51805;49.012;12.104;2022-12-13T08:38:00;97214.44;;;22.15;45.89
65227;BME280;51805;49.012;12.104;2022-12-13T08:40:25;97191.66;;;22.02;45.79
65227;BME280;51805;49.012;12.104;2022-12-13T08:42:54;97213.34;;;22.16;46.00
65227;BME280;51805;49.012;12.104;2022-12-13T08:45:19;97215.16;;;22.20;45.82
65227;BME280;51805;49.012;12.104;2022-12-13T08:47:44;97214.34;;;22.20;45.88
65227;BME280;51805;49.012;12.104;2022-12-13T08:50:09;97221.59;;;22.24;45.76
65227;BME280;51805;49.012;12.104;2022-12-13T08:52:35;97228.53;;;22.30;45.62
65227;BME280;51805;49.012;12.104;2022-12-13T08:55:00;97219.19;;;22.23;45.57
65227;BME280;51805;49.012;12.104;2022-12-13T08:57:25;97217.66;;;22.17;45.65
65227;BME280;51805;49.012;12.104;2022-12-13T08:59:51;97232.63;;;22.28;45.57
65227;BME280;51805;49.012;12.104;2022-12-13T09:02:16;97226.72;;;22.26;45.95
65227;BME280;51805;49.012;12.104;2022-12-13T09:04:42;97225.81;;;22.30;45.69
65227;BME280;51805;49.012;12.104;2022-12-13T09:07:07;97220.00;;;22.23;45.74
65227;BME280;51805;49.012;12.104;2022-12-13T09:09:32;97230.16;;;22.31;45.75
65227;BME280;51805;49.012;12.104;2022-12-13T09:11:57;97219.41;;;22.26;45.68
65227;BME280;51805;49.012;12.104;2022-12-13T09:14:23;97238.69;;;22.38;45.63
65227;BME280;51805;49.012;12.104;2022-12-13T09:16:48;97220.63;;;22.34;45.63
65227;BME280;51805;49.012;12.104;2022-12-13T09:19:15;97200.47;;;22.26;45.58
65227;BME280;51805;49.012;12.104;2022-12-13T09:21:41;97237.81;;;22.43;45.50
65227;BME280;51805;49.012;12.104;2022-12-13T09:24:06;97222.22;;;22.35;45.79
65227;BME280;51805;49.012;12.104;2022-12-13T09:26:33;97194.63;;;22.19;45.66
65227;BME280;51805;49.012;12.104;2022-12-13T09:28:59;97225.09;;;22.43;45.73
65227;BME280;51805;49.012;12.104;2022-12-13T09:31:24;97217.97;;;22.47;45.77
65227;BME280;51805;49.012;12.104;2022-12-13T09:33:49;97215.50;;;22.51;45.58
65227;BME280;51805;49.012;12.104;2022-12-13T09:36:17;97220.63;;;22.52;45.50
65227;BME280;51805;49.012;12.104;2022-12-13T09:38:43;97221.13;;;22.54;45.72
65227;BME280;51805;49.012;12.104;2022-12-13T09:41:22;97213.50;;;22.56;45.61
65227;BME280;51805;49.012;12.104;2022-12-13T09:43:54;97207.38;;;22.51;45.30
65227;BME280;51805;49.012;12.104;2022-12-13T09:46:26;97209.25;;;22.50;45.66
65227;BME280;51805;49.012;12.104;2022-12-13T09:48:52;97195.53;;;22.47;45.65
65227;BME280;51805;49.012;12.104;2022-12-13T09:51:19;97213.41;;;22.61;45.51
65227;BME280;51805;49.012;12.104;2022-12-13T09:53:51;97207.50;;;22.59;45.56
65227;BME280;51805;49.012;12.104;2022-12-13T09:56:20;97210.72;;;22.61;45.57
65227;BME280;51805;49.012;12.104;2022-12-13T09:58:50;97205.81;;;22.63;45.46
65227;BME280;51805;49.012;12.104;2022-12-13T10:01:16;97182.41;;;22.54;45.60
65227;BME280;51805;49.012;12.104;2022-12-13T10:03:46;97173.00;;;22.51;45.44
65227;BME280;51805;49.012;12.104;2022-12-13T10:06:20;97196.56;;;22.64;45.41
65227;BME280;51805;49.012;12.104;2022-12-13T10:08:51;97195.19;;;22.67;45.50
65227;BME280;51805;49.012;12.104;2022-12-13T10:11:19;97186.84;;;22.63;45.40
65227;BME280;51805;49.012;12.104;2022-12-13T10:13:53;97182.94;;;22.69;45.33
65227;BME280;51805;49.012;12.104;2022-12-13T10:19:00;97157.06;;;22.63;45.38
65227;BME280;51805;49.012;12.104;2022-12-13T10:21:46;97179.34;;;22.74;45.36
65227;BME280;51805;49.012;12.104;2022-12-13T10:24:26;97164.38;;;22.63;45.64
65227;BME280;51805;49.012;12.104;2022-12-13T10:26:53;97159.09;;;22.71;45.43
65227;BME280;51805;49.012;12.104;2022-12-13T10:29:19;97154.97;;;22.74;45.31
65227;BME280;51805;49.012;12.104;2022-12-13T10:31:46;97161.78;;;22.71;45.42
65227;BME280;51805;49.012;12.104;2022-12-13T10:36:45;97144.72;;;22.71;45.44
65227;BME280;51805;49.012;12.104;2022-12-13T10:39:39;97150.34;;;22.74;45.55
65227;BME280;51805;49.012;12.104;2022-12-13T10:42:13;97159.78;;;22.77;45.49
65227;BME280;51805;49.012;12.104;2022-12-13T10:44:38;97130.28;;;22.62;45.57
65227;BME280;51805;49.012;12.104;2022-12-13T10:49:50;97148.72;;;22.73;45.80
65227;BME280;51805;49.012;12.104;2022-12-13T10:52:39;97154.16;;;22.73;45.42
65227;BME280;51805;49.012;12.104;2022-12-13T10:55:37;97134.09;;;22.61;45.45
65227;BME280;51805;49.012;12.104;2022-12-13T10:58:04;97146.75;;;22.79;45.58
65227;BME280;51805;49.012;12.104;2022-12-13T11:00:41;97145.34;;;22.81;45.28
65227;BME280;51805;49.012;12.104;2022-12-13T11:03:11;97142.13;;;22.79;45.51
65227;BME280;51805;49.012;12.104;2022-12-13T11:05:36;97125.47;;;22.72;45.49
65227;BME280;51805;49.012;12.104;2022-12-13T11:08:14;97133.13;;;22.84;45.36
65227;BME280;51805;49.012;12.104;2022-12-13T11:10:39;97133.41;;;22.82;45.38
65227;BME280;51805;49.012;12.104;2022-12-13T11:13:06;97132.69;;;22.77;45.56
65227;BME280;51805;49.012;12.104;2022-12-13T11:15:34;97133.13;;;22.84;45.32
65227;BME280;51805;49.012;12.104;2022-12-13T11:18:01;97118.03;;;22.78;45.42
65227;BME280;51805;49.012;12.104;2022-12-13T11:20:32;97127.69;;;22.84;45.39
65227;BME280;51805;49.012;12.104;2022-12-13T11:23:06;97122.75;;;22.86;45.35
65227;BME280;51805;49.012;12.104;2022-12-13T11:25:40;97135.22;;;22.87;45.26
65227;BME280;51805;49.012;12.104;2022-12-13T11:30:42;97109.41;;;22.89;45.28
65227;BME280;51805;49.012;12.104;2022-12-13T11:33:17;97108.13;;;22.87;45.30
65227;BME280;51805;49.012;12.104;2022-12-13T11:41:02;97100.78;;;22.87;45.34
65227;BME280;51805;49.012;12.104;2022-12-13T11:43:49;97093.97;;;22.76;45.39
65227;BME280;51805;49.012;12.104;2022-12-13T11:46:20;97101.38;;;22.84;45.40
65227;BME280;51805;49.012;12.104;2022-12-13T11:48:52;97103.19;;;22.89;45.24
65227;BME280;51805;49.012;12.104;2022-12-13T11:51:33;97103.91;;;22.94;45.37
65227;BME280;51805;49.012;12.104;2022-12-13T11:54:19;97093.38;;;22.93;45.29
65227;BME280;51805;49.012;12.104;2022-12-13T11:56:47;97096.38;;;22.91;45.38
65227;BME280;51805;49.012;12.104;2022-12-13T12:02:06;97097.38;;;22.95;45.17
65227;BME280;51805;49.012;12.104;2022-12-13T12:04:49;97092.38;;;23.02;45.36
65227;BME280;51805;49.012;12.104;2022-12-13T12:07:26;97068.28;;;22.87;45.31
65227;BME280;51805;49.012;12.104;2022-12-13T12:10:03;97091.84;;;23.00;45.33
65227;BME280;51805;49.012;12.104;2022-12-13T12:12:32;97081.31;;;22.99;45.13
65227;BME280;51805;49.012;12.104;2022-12-13T12:17:27;97071.25;;;22.99;45.23
65227;BME280;51805;49.012;12.104;2022-12-13T12:19:55;97075.81;;;23.04;45.10
65227;BME280;51805;49.012;12.104;2022-12-13T12:22:38;97068.69;;;22.94;45.23
65227;BME280;51805;49.012;12.104;2022-12-13T12:30:46;97035.75;;;22.87;45.21
65227;BME280;51805;49.012;12.104;2022-12-13T12:41:51;97069.47;;;23.09;45.17
65227;BME280;51805;49.012;12.104;2022-12-13T12:58:54;97060.44;;;23.13;45.20
65227;BME280;51805;49.012;12.104;2022-12-13T13:03:44;97048.16;;;23.16;45.18
65227;BME280;51805;49.012;12.104;2022-12-13T13:06:23;97040.75;;;23.08;45.23
65227;BME280;51805;49.012;12.104;2022-12-13T13:08:54;97034.34;;;23.03;45.06
65227;BME280;51805;49.012;12.104;2022-12-13T13:11:24;97050.38;;;23.14;45.12
65227;BME280;51805;49.012;12.104;2022-12-13T13:16:35;97055.97;;;23.17;45.10
65227;BME280;51805;49.012;12.104;2022-12-13T13:21:46;97060.59;;;23.17;45.04
65227;BME280;51805;49.012;12.104;2022-12-13T13:24:27;97062.22;;;23.18;45.04
65227;BME280;51805;49.012;12.104;2022-12-13T13:29:39;97049.13;;;23.20;45.01
65227;BME280;51805;49.012;12.104;2022-12-13T13:34:43;97039.75;;;23.03;45.17
65227;BME280;51805;49.012;12.104;2022-12-13T13:40:00;97084.38;;;23.20;45.10
65227;BME280;51805;49.012;12.104;2022-12-13T13:42:28;97081.66;;;23.20;45.10
65227;BME280;51805;49.012;12.104;2022-12-13T13:45:00;97068.84;;;23.12;45.16
65227;BME280;51805;49.012;12.104;2022-12-13T13:52:56;97078.97;;;23.20;45.06
65227;BME280;51805;49.012;12.104;2022-12-13T14:06:31;97068.72;;;23.17;45.10
65227;BME280;51805;49.012;12.104;2022-12-13T14:09:13;97072.56;;;23.16;45.23
65227;BME280;51805;49.012;12.104;2022-12-13T14:29:56;97057.13;;;23.02;45.34
65227;BME280;51805;49.012;12.104;2022-12-13T14:32:25;97063.53;;;23.07;45.38
65227;BME280;51805;49.012;12.104;2022-12-13T14:34:51;97070.25;;;23.09;45.20
65227;BME280;51805;49.012;12.104;2022-12-13T14:37:21;97060.53;;;23.08;45.34
65227;BME280;51805;49.012;12.104;2022-12-13T14:39:48;97049.59;;;22.99;45.15
65227;BME280;51805;49.012;12.104;2022-12-13T14:42:23;97060.84;;;23.07;45.30
65227;BME280;51805;49.012;12.104;2022-12-13T14:44:49;97062.63;;;23.11;45.38
65227;BME280;51805;49.012;12.104;2022-12-13T14:47:14;97058.00;;;23.12;45.25